createdAt,value
2019-03-02T00:03:38.054Z,86.24
2019-03-02T00:06:05.181Z,88.63
2019-03-02T00:08:32.477Z,89.25
2019-03-02T00:10:59.743Z,90.08
2019-03-02T00:13:26.891Z,90.54
2019-03-02T00:15:54.305Z,90.42
2019-03-02T00:18:21.485Z,90.92
2019-03-02T00:20:50.325Z,90.81
2019-03-02T00:23:18.888Z,90.04
2019-03-02T00:25:46.570Z,90.10
2019-03-02T00:28:13.575Z,89.61
2019-03-02T00:30:40.410Z,91.39
2019-03-02T00:33:07.360Z,91.39
2019-03-02T00:35:34.092Z,90.72
2019-03-02T00:38:00.961Z,88.75
2019-03-02T00:40:30.373Z,88.34
2019-03-02T00:42:56.482Z,87.35
2019-03-02T00:45:23.201Z,88.74
2019-03-02T00:47:50.000Z,87.94
2019-03-02T00:50:36.647Z,88.73
2019-03-02T00:53:05.394Z,87.61
2019-03-02T00:55:45.391Z,88.23
2019-03-02T00:58:12.618Z,88.65
2019-03-02T01:00:39.468Z,90.03
2019-03-02T01:03:06.592Z,91.74
2019-03-02T01:05:36.104Z,91.42
2019-03-02T01:08:02.023Z,90.66
2019-03-02T01:10:28.891Z,90.82
2019-03-02T01:12:55.768Z,89.56
2019-03-02T01:15:22.710Z,89.48
2019-03-02T01:17:49.543Z,89.42
2019-03-02T01:20:16.495Z,89.49
2019-03-02T01:22:43.511Z,88.87
2019-03-02T01:25:13.490Z,89.73
2019-03-02T01:27:40.497Z,91.57
2019-03-02T01:30:29.965Z,91.14
2019-03-02T01:32:57.538Z,90.40
2019-03-02T01:35:24.191Z,92.00
2019-03-02T01:37:50.837Z,92.94
2019-03-02T01:40:18.284Z,93.32
2019-03-02T01:42:44.948Z,93.28
2019-03-02T01:45:13.773Z,94.34
2019-03-02T01:47:40.817Z,94.34
2019-03-02T01:50:49.360Z,92.85
2019-03-02T01:53:16.562Z,92.21
2019-03-02T01:55:43.185Z,93.96
2019-03-02T01:58:32.262Z,93.95
2019-03-02T02:00:59.014Z,94.42
2019-03-02T02:03:25.740Z,94.27
2019-03-02T02:05:52.705Z,93.97
2019-03-02T02:08:19.534Z,93.92
2019-03-02T02:10:46.267Z,94.63
2019-03-02T02:13:13.064Z,95.01
2019-03-02T02:15:39.798Z,95.55
2019-03-02T02:18:06.530Z,95.32
2019-03-02T02:20:33.429Z,95.24
2019-03-02T02:23:00.175Z,95.03
2019-03-02T02:25:27.184Z,94.43
2019-03-02T02:27:54.860Z,93.04
2019-03-02T02:31:06.390Z,94.85
2019-03-02T02:33:33.240Z,95.23
2019-03-02T02:36:00.715Z,95.74
2019-03-02T02:38:28.041Z,95.89
2019-03-02T02:40:54.834Z,95.49
2019-03-02T02:43:22.366Z,95.88
2019-03-02T02:45:53.634Z,96.38
2019-03-02T02:48:19.305Z,96.65
2019-03-02T02:50:46.145Z,96.75
2019-03-02T02:53:12.875Z,96.94
2019-03-02T02:55:40.982Z,97.01
2019-03-02T02:58:12.717Z,96.88
2019-03-02T03:00:37.015Z,96.72
2019-03-02T03:03:04.139Z,96.41
2019-03-02T03:05:53.933Z,96.83
2019-03-02T03:08:55.695Z,97.30
2019-03-02T03:11:22.721Z,96.72
2019-03-02T03:13:49.581Z,96.01
2019-03-02T03:16:17.899Z,96.26
2019-03-02T03:18:47.146Z,97.61
2019-03-02T03:21:13.812Z,96.99
2019-03-02T03:23:40.671Z,96.84
2019-03-02T03:26:07.539Z,97.07
2019-03-02T03:28:34.262Z,97.98
2019-03-02T03:31:01.124Z,97.70
2019-03-02T03:33:42.141Z,95.06
2019-03-02T03:35:57.717Z,95.50
2019-03-02T03:38:29.375Z,96.49
2019-03-02T03:40:54.358Z,96.07
2019-03-02T03:43:21.190Z,94.73
2019-03-02T03:45:48.055Z,96.15
2019-03-02T03:48:17.946Z,96.39
2019-03-02T03:50:48.023Z,96.08
2019-03-02T03:53:12.826Z,94.97
2019-03-02T03:55:39.556Z,94.55
2019-03-02T03:58:13.189Z,93.37
2019-03-02T04:00:40.407Z,95.00
2019-03-02T04:03:21.261Z,95.17
2019-03-02T04:05:48.686Z,95.18
2019-03-02T04:08:17.264Z,95.26
2019-03-02T04:10:44.001Z,95.96
2019-03-02T04:13:10.805Z,96.63
2019-03-02T04:15:41.515Z,96.86
2019-03-02T04:18:50.122Z,96.51
2019-03-02T04:21:14.541Z,96.74
2019-03-02T04:23:41.173Z,96.78
2019-03-02T04:26:08.563Z,96.67
2019-03-02T04:28:35.203Z,97.14
2019-03-02T04:31:04.718Z,97.11
2019-03-02T04:33:30.666Z,96.49
2019-03-02T04:35:57.318Z,96.69
2019-03-02T04:38:24.042Z,96.18
2019-03-02T04:40:51.020Z,96.08
2019-03-02T04:43:17.749Z,94.20
2019-03-02T04:45:44.488Z,93.91
2019-03-02T04:48:11.301Z,93.77
2019-03-02T04:50:38.217Z,93.96
2019-03-02T04:53:05.139Z,93.94
2019-03-02T04:55:32.324Z,94.45
2019-03-02T04:57:58.965Z,94.97
2019-03-02T05:00:28.627Z,96.01
2019-03-02T05:02:56.163Z,96.87
2019-03-02T05:05:24.170Z,95.89
2019-03-02T05:07:50.995Z,95.57
2019-03-02T05:10:17.953Z,95.54
2019-03-02T05:12:44.686Z,95.13
2019-03-02T05:15:16.186Z,96.72
2019-03-02T05:17:42.967Z,97.10
2019-03-02T05:20:09.965Z,97.45
2019-03-02T05:22:36.697Z,98.52
2019-03-02T05:25:04.345Z,99.15
2019-03-02T05:27:32.038Z,98.41
2019-03-02T05:29:59.729Z,98.49
2019-03-02T05:32:26.438Z,98.64
2019-03-02T05:34:53.069Z,97.50
2019-03-02T05:37:19.983Z,97.86
2019-03-02T05:39:49.549Z,97.30
2019-03-02T05:42:15.565Z,96.80
2019-03-02T05:44:42.311Z,96.62
2019-03-02T05:47:09.424Z,96.72
2019-03-02T05:49:36.161Z,97.23
2019-03-02T05:52:03.310Z,98.53
2019-03-02T05:54:30.024Z,98.75
2019-03-02T05:56:56.752Z,97.18
2019-03-02T05:59:26.599Z,97.91
2019-03-02T06:01:52.155Z,98.34
2019-03-02T06:04:22.108Z,99.39
2019-03-02T06:07:00.405Z,98.93
2019-03-02T06:09:27.684Z,99.32
2019-03-02T06:11:54.614Z,98.77
2019-03-02T06:14:21.587Z,99.35
2019-03-02T06:16:48.229Z,99.34
2019-03-02T06:19:17.801Z,99.11
2019-03-02T06:22:03.339Z,99.03
2019-03-02T06:24:30.686Z,98.68
2019-03-02T06:26:57.756Z,98.79
2019-03-02T06:29:24.550Z,100.00
2019-03-02T06:31:54.044Z,100.00
2019-03-02T06:34:20.730Z,99.52
2019-03-02T06:36:48.164Z,98.98
2019-03-02T06:39:15.138Z,99.87
2019-03-02T06:41:42.047Z,99.70
2019-03-02T06:44:50.029Z,99.58
2019-03-02T06:47:17.230Z,99.37
2019-03-02T06:49:44.338Z,99.71
2019-03-02T06:52:30.773Z,100.00
2019-03-02T06:54:58.030Z,100.00
2019-03-02T06:57:25.134Z,100.00
2019-03-02T07:01:49.322Z,100.00
2019-03-02T07:04:18.058Z,100.00
2019-03-02T07:06:46.913Z,100.00
2019-03-02T07:09:27.621Z,100.00
2019-03-02T07:11:54.548Z,100.00
2019-03-02T07:14:21.595Z,100.00
2019-03-02T07:16:51.975Z,100.00
2019-03-02T07:19:37.952Z,100.00
2019-03-02T07:22:04.822Z,100.00
2019-03-02T07:24:31.569Z,100.00
2019-03-02T07:26:58.984Z,100.00
2019-03-02T07:29:45.463Z,100.00
2019-03-02T07:32:13.192Z,100.00
2019-03-02T07:34:40.801Z,100.00
2019-03-02T07:37:09.210Z,100.00
2019-03-02T07:39:38.437Z,99.41
2019-03-02T07:42:05.272Z,99.98
2019-03-02T07:44:32.062Z,99.16
2019-03-02T07:46:59.741Z,98.50
2019-03-02T07:49:26.573Z,99.32
2019-03-02T07:51:53.442Z,99.21
2019-03-02T07:54:20.576Z,99.95
2019-03-02T07:56:47.751Z,99.38
2019-03-02T07:59:15.206Z,99.70
2019-03-02T08:01:42.261Z,99.00
2019-03-02T08:04:09.622Z,99.54
2019-03-02T08:06:36.480Z,98.79
2019-03-02T08:09:44.698Z,98.81
2019-03-02T08:12:11.980Z,98.67
2019-03-02T08:14:39.270Z,97.56
2019-03-02T08:17:09.790Z,97.14
2019-03-02T08:19:35.450Z,96.43
2019-03-02T08:22:03.756Z,96.88
2019-03-02T08:24:32.766Z,96.00
2019-03-02T08:26:59.872Z,94.47
2019-03-02T08:29:46.586Z,94.96
2019-03-02T08:32:13.494Z,94.72
2019-03-02T08:34:42.856Z,94.22
2019-03-02T08:37:09.738Z,93.46
2019-03-02T08:39:37.410Z,93.86
2019-03-02T08:42:05.051Z,93.00
2019-03-02T08:44:32.514Z,92.05
2019-03-02T08:47:00.280Z,91.49
2019-03-02T08:49:27.381Z,91.11
2019-03-02T08:51:55.376Z,90.09
2019-03-02T08:54:22.741Z,89.55
2019-03-02T08:56:49.830Z,88.79
2019-03-02T08:59:17.318Z,88.28
2019-03-02T09:01:44.559Z,88.23
2019-03-02T09:04:14.049Z,87.07
2019-03-02T09:06:40.857Z,84.96
2019-03-02T09:09:08.461Z,84.04
2019-03-02T09:11:35.376Z,84.44
2019-03-02T09:14:02.539Z,83.47
2019-03-02T09:16:29.825Z,83.78
2019-03-02T09:18:56.612Z,82.61
2019-03-02T09:21:23.374Z,81.91
2019-03-02T09:23:51.724Z,81.91
2019-03-02T09:26:19.237Z,81.17
2019-03-02T09:28:46.699Z,81.83
2019-03-02T09:31:13.831Z,81.91
2019-03-02T09:33:40.939Z,80.74
2019-03-02T09:36:07.948Z,79.56
2019-03-02T09:38:34.889Z,80.87
2019-03-02T09:41:01.654Z,78.81
2019-03-02T09:43:28.407Z,79.38
2019-03-02T09:45:55.560Z,79.62
2019-03-02T09:48:24.525Z,79.25
2019-03-02T09:50:51.095Z,78.15
2019-03-02T09:53:18.150Z,78.22
2019-03-02T09:55:44.977Z,78.63
2019-03-02T09:58:12.033Z,77.93
2019-03-02T10:00:39.293Z,79.58
2019-03-02T10:03:06.299Z,79.05
2019-03-02T10:05:33.035Z,78.80
2019-03-02T10:08:00.548Z,79.13
2019-03-02T10:10:28.987Z,80.51
2019-03-02T10:12:57.261Z,80.80
2019-03-02T10:15:24.695Z,80.59
2019-03-02T10:17:52.284Z,80.10
2019-03-02T10:20:19.594Z,79.62
2019-03-02T10:22:46.850Z,79.51
2019-03-02T10:25:14.343Z,78.62
2019-03-02T10:27:41.717Z,78.77
2019-03-02T10:30:11.725Z,78.22
2019-03-02T10:32:38.867Z,78.78
2019-03-02T10:35:06.693Z,76.81
2019-03-02T10:37:33.947Z,75.49
2019-03-02T10:40:01.529Z,76.17
2019-03-02T10:42:32.081Z,75.31
2019-03-02T10:45:17.765Z,75.56
2019-03-02T10:47:45.311Z,75.18
2019-03-02T10:50:14.745Z,74.90
2019-03-02T10:52:41.713Z,75.25
2019-03-02T10:55:12.303Z,73.69
2019-03-02T10:57:38.951Z,73.88
2019-03-02T11:00:09.258Z,73.62
2019-03-02T11:02:37.014Z,73.36
2019-03-02T11:08:16.201Z,71.96
2019-03-02T11:11:02.897Z,71.22
2019-03-02T11:13:51.980Z,71.68
2019-03-02T11:16:38.375Z,69.52
2019-03-02T11:19:25.187Z,69.06
2019-03-02T11:22:14.972Z,69.19
2019-03-02T11:25:00.443Z,68.91
2019-03-02T11:27:49.684Z,66.09
2019-03-02T11:30:36.152Z,65.68
2019-03-02T11:33:22.885Z,65.92
2019-03-02T11:36:10.597Z,65.87
2019-03-02T11:38:57.443Z,65.66
2019-03-02T11:41:44.236Z,64.36
2019-03-02T11:44:31.462Z,64.82
2019-03-02T11:47:18.116Z,64.17
2019-03-02T11:50:04.602Z,65.60
2019-03-02T11:52:51.339Z,64.94
2019-03-02T11:55:38.326Z,62.50
2019-03-02T11:58:14.029Z,60.94
2019-03-02T12:01:01.097Z,61.38
2019-03-02T12:03:47.797Z,60.80
2019-03-02T12:06:25.494Z,61.37
2019-03-02T12:09:12.430Z,59.87
2019-03-02T12:11:59.037Z,60.21
2019-03-02T12:14:46.293Z,58.71
2019-03-02T12:17:41.050Z,57.12
2019-03-02T12:20:24.951Z,58.09
2019-03-02T12:22:59.936Z,58.80
2019-03-02T12:25:46.671Z,58.02
2019-03-02T12:28:36.233Z,58.74
2019-03-02T12:31:21.959Z,58.89
2019-03-02T12:34:08.665Z,60.12
2019-03-02T12:36:55.467Z,59.60
2019-03-02T12:39:42.179Z,59.62
2019-03-02T12:42:30.397Z,59.58
2019-03-02T12:45:17.342Z,61.13
2019-03-02T12:48:04.218Z,61.41
2019-03-02T12:50:51.517Z,60.86
2019-03-02T12:53:35.689Z,60.40
2019-03-02T12:56:21.951Z,60.40
2019-03-02T12:59:08.478Z,60.01
2019-03-02T13:01:55.348Z,60.49
2019-03-02T13:04:45.408Z,61.43
2019-03-02T13:07:30.873Z,61.77
2019-03-02T13:10:17.724Z,61.56
2019-03-02T13:13:04.397Z,61.80
2019-03-02T13:15:51.212Z,63.05
2019-03-02T13:18:38.323Z,61.22
2019-03-02T13:21:25.078Z,60.52
2019-03-02T13:24:14.898Z,59.01
2019-03-02T13:26:49.821Z,59.35
2019-03-02T13:29:23.132Z,59.35
2019-03-02T13:32:09.780Z,60.67
2019-03-02T13:34:56.292Z,60.36
2019-03-02T13:37:42.955Z,59.35
2019-03-02T13:40:29.752Z,58.96
2019-03-02T13:43:37.557Z,59.02
2019-03-02T13:46:24.851Z,59.35
2019-03-02T13:49:11.360Z,60.55
2019-03-02T13:51:58.148Z,58.61
2019-03-02T13:54:33.878Z,57.68
2019-03-02T13:57:11.122Z,57.63
2019-03-02T13:59:58.036Z,57.84
2019-03-02T14:02:44.797Z,58.19
2019-03-02T14:05:31.378Z,57.36
2019-03-02T14:08:17.842Z,57.89
2019-03-02T14:11:04.764Z,59.08
2019-03-02T14:13:51.255Z,58.74
2019-03-02T14:16:37.994Z,57.80
2019-03-02T14:19:31.907Z,58.39
2019-03-02T14:22:18.500Z,57.91
2019-03-02T14:24:55.026Z,59.94
2019-03-02T14:27:41.468Z,57.93
2019-03-02T14:30:12.849Z,56.85
2019-03-02T14:32:59.409Z,57.47
2019-03-02T14:35:46.068Z,58.01
2019-03-02T14:38:23.795Z,57.91
2019-03-02T14:41:09.055Z,58.35
2019-03-02T14:43:57.150Z,58.87
2019-03-02T14:46:45.517Z,57.96
2019-03-02T14:49:32.224Z,58.68
2019-03-02T14:52:19.034Z,59.82
2019-03-02T14:55:05.721Z,59.69
2019-03-02T14:57:52.629Z,56.83
2019-03-02T15:00:39.379Z,58.26
2019-03-02T15:03:29.349Z,58.08
2019-03-02T15:06:15.607Z,57.42
2019-03-02T15:08:51.252Z,57.08
2019-03-02T15:11:40.030Z,58.43
2019-03-02T15:14:26.466Z,58.46
2019-03-02T15:17:13.183Z,58.78
2019-03-02T15:19:59.250Z,59.12
2019-03-02T15:22:46.396Z,60.39
2019-03-02T15:25:33.197Z,61.53
2019-03-02T15:28:28.930Z,62.32
2019-03-02T15:31:09.784Z,63.30
2019-03-02T15:33:56.319Z,61.51
2019-03-02T15:36:44.081Z,62.29
2019-03-02T15:39:32.050Z,63.46
2019-03-02T15:42:21.257Z,62.65
2019-03-02T15:45:06.897Z,63.08
2019-03-02T15:47:53.393Z,62.72
2019-03-02T15:50:40.225Z,63.94
2019-03-02T15:53:26.584Z,64.07
2019-03-02T15:56:35.640Z,64.97
2019-03-02T15:59:22.158Z,64.46
2019-03-02T16:02:10.225Z,63.25
2019-03-02T16:04:56.594Z,65.10
2019-03-02T16:07:38.881Z,65.87
2019-03-02T16:10:27.667Z,66.51
2019-03-02T16:13:16.846Z,65.83
2019-03-02T16:15:49.927Z,67.86
2019-03-02T16:18:38.393Z,68.31
2019-03-02T16:21:24.937Z,67.69
2019-03-02T16:24:11.379Z,67.84
2019-03-02T16:26:45.062Z,67.47
2019-03-02T16:29:31.468Z,68.13
2019-03-02T16:32:05.196Z,68.57
2019-03-02T16:34:51.801Z,68.56
2019-03-02T16:37:38.435Z,68.48
2019-03-02T16:40:26.056Z,69.03
2019-03-02T16:43:12.952Z,68.81
2019-03-02T16:45:59.370Z,69.48
2019-03-02T16:48:45.799Z,70.26
2019-03-02T16:51:53.701Z,70.50
2019-03-02T16:54:40.072Z,70.67
2019-03-02T16:57:30.344Z,71.04
2019-03-02T17:00:14.777Z,71.19
2019-03-02T17:03:03.015Z,71.26
2019-03-02T17:05:38.669Z,72.77
2019-03-02T17:08:25.331Z,73.11
2019-03-02T17:10:59.536Z,72.89
2019-03-02T17:13:45.535Z,72.91
2019-03-02T17:16:35.331Z,73.64
2019-03-02T17:19:24.444Z,72.69
2019-03-02T17:22:09.198Z,73.04
2019-03-02T17:24:56.161Z,73.04
2019-03-02T17:27:43.211Z,73.31
2019-03-02T17:30:34.161Z,73.28
2019-03-02T17:33:20.915Z,73.68
2019-03-02T17:36:07.613Z,75.47
2019-03-02T17:38:54.324Z,75.82
2019-03-02T17:41:41.103Z,76.74
2019-03-02T17:44:28.079Z,75.64
2019-03-02T17:47:15.161Z,77.01
2019-03-02T17:50:01.864Z,76.81
2019-03-02T17:52:50.487Z,76.60
2019-03-02T17:55:25.058Z,77.67
2019-03-02T17:58:11.874Z,78.50
2019-03-02T18:00:58.236Z,77.73
2019-03-02T18:03:50.201Z,77.86
2019-03-02T18:06:35.452Z,78.36
2019-03-02T18:09:24.053Z,78.17
2019-03-02T18:12:11.252Z,78.46
2019-03-02T18:14:58.235Z,78.27
2019-03-02T18:17:45.216Z,77.79
2019-03-02T18:20:15.898Z,78.68
2019-03-02T18:22:43.037Z,79.09
2019-03-02T18:25:11.983Z,79.31
2019-03-02T18:27:39.577Z,80.27
2019-03-02T18:30:09.963Z,80.98
2019-03-02T18:35:34.060Z,81.25
2019-03-02T18:38:04.485Z,80.99
2019-03-02T18:40:31.229Z,82.27
2019-03-02T18:42:58.607Z,83.24
2019-03-02T18:45:45.906Z,83.37
2019-03-02T18:48:34.136Z,83.38
2019-03-02T18:51:22.461Z,83.50
2019-03-02T18:53:49.713Z,84.05
2019-03-02T18:56:16.454Z,84.32
2019-03-02T18:58:43.097Z,84.72
2019-03-02T19:01:51.207Z,85.24
2019-03-02T19:04:20.759Z,85.46
2019-03-02T19:06:49.139Z,85.66
2019-03-02T19:11:55.351Z,86.29
2019-03-02T19:14:23.960Z,85.88
2019-03-02T19:16:50.691Z,87.08
2019-03-02T19:19:18.587Z,88.32
2019-03-02T19:21:45.361Z,88.78
2019-03-02T19:24:12.152Z,88.79
2019-03-02T19:26:39.289Z,88.97
2019-03-02T19:29:06.291Z,89.26
2019-03-02T19:32:14.175Z,89.92
2019-03-02T19:35:00.493Z,90.42
2019-03-02T19:37:27.278Z,90.51
2019-03-02T19:39:54.178Z,91.08
2019-03-02T19:42:20.914Z,91.43
2019-03-02T19:44:47.973Z,91.28
2019-03-02T19:47:14.853Z,91.64
2019-03-02T19:49:41.596Z,91.90
2019-03-02T19:52:08.533Z,91.87
2019-03-02T19:54:35.272Z,92.28
2019-03-02T19:57:02.038Z,93.37
2019-03-02T19:59:28.894Z,93.67
2019-03-02T20:01:55.832Z,93.72
2019-03-02T20:04:23.160Z,94.09
2019-03-02T20:06:50.026Z,94.42
2019-03-02T20:09:17.777Z,94.83
2019-03-02T20:11:44.505Z,95.33
2019-03-02T20:14:11.904Z,95.76
2019-03-02T20:16:38.925Z,96.32
2019-03-02T20:19:06.268Z,96.71
2019-03-02T20:21:33.095Z,97.14
2019-03-02T20:23:59.833Z,97.42
2019-03-02T20:26:26.891Z,98.00
2019-03-02T20:28:54.513Z,98.33
2019-03-02T20:31:21.506Z,98.39
2019-03-02T20:33:48.659Z,98.93
2019-03-02T20:36:15.589Z,99.61
2019-03-02T20:38:42.435Z,100.00
2019-03-02T20:41:09.582Z,100.00
2019-03-02T20:43:36.926Z,100.00
2019-03-02T20:46:04.080Z,100.00
2019-03-02T20:48:50.677Z,100.00
2019-03-02T20:51:17.521Z,100.00
2019-03-02T20:53:44.207Z,100.00
2019-03-02T20:56:11.401Z,100.00
2019-03-02T20:58:38.710Z,100.00
2019-03-02T21:01:05.466Z,100.00
2019-03-02T21:03:52.100Z,100.00
2019-03-02T21:06:18.776Z,100.00
2019-03-02T21:08:46.153Z,100.00
2019-03-02T21:11:14.190Z,100.00
2019-03-02T21:13:41.345Z,100.00
2019-03-02T21:16:08.547Z,100.00
2019-03-02T21:18:35.474Z,100.00
2019-03-02T21:21:02.634Z,100.00
2019-03-02T21:23:29.643Z,100.00
2019-03-02T21:26:16.238Z,100.00
2019-03-02T21:28:43.021Z,100.00
2019-03-02T21:31:09.756Z,100.00
2019-03-02T21:33:56.059Z,100.00
2019-03-02T21:36:22.794Z,100.00
2019-03-02T21:38:50.003Z,100.00
2019-03-02T21:41:16.688Z,100.00
2019-03-02T21:43:43.770Z,100.00
2019-03-02T21:46:10.788Z,100.00
2019-03-02T21:48:37.936Z,100.00
2019-03-02T21:51:05.765Z,100.00
2019-03-02T21:53:33.589Z,100.00
2019-03-02T21:56:00.668Z,100.00
2019-03-02T21:58:47.548Z,99.87
2019-03-02T22:01:14.337Z,100.00
2019-03-02T22:03:41.078Z,100.00
2019-03-02T22:06:27.375Z,99.83
2019-03-02T22:08:54.504Z,99.28
2019-03-02T22:11:21.482Z,98.98
2019-03-02T22:13:48.265Z,99.20
2019-03-02T22:16:34.833Z,99.52
2019-03-02T22:19:01.717Z,99.45
2019-03-02T22:21:28.469Z,99.38
2019-03-02T22:23:55.207Z,99.12
2019-03-02T22:26:22.012Z,98.90
2019-03-02T22:28:49.389Z,98.77
2019-03-02T22:31:16.187Z,98.79
2019-03-02T22:33:43.511Z,98.63
2019-03-02T22:36:10.551Z,99.01
2019-03-02T22:38:37.474Z,98.65
2019-03-02T22:41:04.263Z,98.66
2019-03-02T22:43:31.001Z,98.52
2019-03-02T22:45:57.941Z,98.63
2019-03-02T22:48:24.722Z,98.48
2019-03-02T22:50:51.453Z,98.83
2019-03-02T22:53:38.059Z,99.12
2019-03-02T22:56:04.903Z,99.58
2019-03-02T22:58:31.281Z,100.00
2019-03-02T23:01:37.517Z,100.00
2019-03-02T23:04:04.549Z,100.00
2019-03-02T23:06:31.401Z,100.00
2019-03-02T23:08:58.815Z,100.00
2019-03-02T23:11:25.461Z,100.00
2019-03-02T23:13:52.193Z,100.00
2019-03-02T23:16:18.988Z,100.00
2019-03-02T23:18:45.836Z,100.00
2019-03-02T23:21:12.669Z,100.00
2019-03-02T23:23:39.475Z,100.00
2019-03-02T23:26:06.317Z,100.00
2019-03-02T23:28:33.059Z,100.00
2019-03-02T23:30:59.849Z,100.00
2019-03-02T23:33:26.639Z,100.00
2019-03-02T23:35:53.468Z,100.00
2019-03-02T23:38:20.256Z,100.00
2019-03-02T23:40:47.269Z,100.00
2019-03-02T23:43:14.352Z,100.00
2019-03-02T23:46:01.018Z,100.00
2019-03-02T23:48:27.907Z,100.00
2019-03-02T23:50:55.375Z,100.00
2019-03-02T23:53:22.160Z,100.00
2019-03-02T23:55:49.037Z,100.00
2019-03-02T23:58:15.886Z,100.00
